シンガポール/チャンギ の空港の天気 - METARとTAF

シンガポール・チャンギ国際空港 ( WSSS / SIN ) - シンガポール Changi
飛行場実況気象(Metar)
観測時間01/20 09:30 SGT (01/20 01:30 UTC)
風向・風速北北西 2m/s
視程8000m
天気現象周辺でしゅう雨
少しの雲 雲底高度 370m
全天の4割程度の雲 雲底高度 520m
少しの雲 雲底高度 610m
気温27℃
湿度89%
気圧1012hPa
METARWSSS 200130Z 33004KT 290V040 8000 VCSH FEW012 SCT017TCU FEW020CB 27/25 Q1012 TEMPO TL0230 4000 SHRA
過去の天気等 Google飛行場航空写真 Wunderground天気予報

過去48時間のMETAR

飛行場予報(TAF)
発表時間: 1/20 07:00 SGT (1/19 23:00 UTC)
予報対象時間: 20日8時 SGT ~ 21日14時 SGT
風向・風速北 4m/s
視程10km以上
少しの積乱雲 雲底高度 550m
全天の4割程度の雲 雲底高度 610m
20日14時 SGT ~ 20日18時 SGT に一時的に
視程2,500m
天気現象雷雨
全天の4割程度の積乱雲 雲底高度 370m
全天の8割程度の雲 雲底高度 460m
TAF WSSS 192300Z 2000/2106 01007KT 9999 FEW018CB SCT020
TEMPO 2006/2010 2500 TSRA SCT012CB BKN015